createdAt,value
2022-11-04T00:00:35.689Z,100.00
2022-11-04T00:03:05.292Z,100.00
2022-11-04T00:05:35.601Z,100.00
2022-11-04T00:08:23.647Z,100.00
2022-11-04T00:11:16.393Z,100.00
2022-11-04T00:13:45.503Z,100.00
2022-11-04T00:16:32.825Z,100.00
2022-11-04T00:19:01.900Z,100.00
2022-11-04T00:21:51.740Z,100.00
2022-11-04T00:24:39.934Z,100.00
2022-11-04T00:27:29.704Z,100.00
2022-11-04T00:29:59.659Z,100.00
2022-11-04T00:32:46.990Z,100.00
2022-11-04T00:35:19.220Z,100.00
2022-11-04T00:37:47.979Z,100.00
2022-11-04T00:40:19.027Z,100.00
2022-11-04T00:42:48.913Z,100.00
2022-11-04T00:45:18.075Z,100.00
2022-11-04T00:47:47.542Z,100.00
2022-11-04T00:50:17.783Z,100.00
2022-11-04T00:52:47.642Z,100.00
2022-11-04T00:55:17.980Z,100.00
2022-11-04T00:57:46.778Z,100.00
2022-11-04T01:00:16.452Z,100.00
2022-11-04T01:02:48.123Z,100.00
2022-11-04T01:05:17.529Z,100.00
2022-11-04T01:07:47.418Z,100.00
2022-11-04T01:10:18.386Z,100.00
2022-11-04T01:12:47.828Z,100.00
2022-11-04T01:15:18.326Z,100.00
2022-11-04T01:17:47.802Z,100.00
2022-11-04T01:20:17.214Z,100.00
2022-11-04T01:22:46.075Z,100.00
2022-11-04T01:25:15.565Z,100.00
2022-11-04T01:27:44.939Z,100.00
2022-11-04T01:30:13.981Z,100.00
2022-11-04T01:32:42.591Z,100.00
2022-11-04T01:35:12.785Z,100.00
2022-11-04T01:37:41.472Z,100.00
2022-11-04T01:40:10.999Z,100.00
2022-11-04T01:42:41.131Z,100.00
2022-11-04T01:45:14.497Z,100.00
2022-11-04T01:47:57.323Z,100.00
2022-11-04T01:50:29.223Z,100.00
2022-11-04T01:53:09.936Z,100.00
2022-11-04T01:55:48.626Z,100.00
2022-11-04T01:58:18.474Z,100.00
2022-11-04T02:00:47.279Z,100.00
2022-11-04T02:03:24.713Z,100.00
2022-11-04T02:05:54.317Z,100.00
2022-11-04T02:08:23.004Z,100.00
2022-11-04T02:11:17.053Z,100.00
2022-11-04T02:13:45.780Z,100.00
2022-11-04T02:16:38.400Z,100.00
2022-11-04T02:19:52.489Z,100.00
2022-11-04T02:22:35.809Z,100.00
2022-11-04T02:25:33.329Z,100.00
2022-11-04T02:28:20.205Z,100.00
2022-11-04T02:30:59.561Z,100.00
2022-11-04T02:33:40.152Z,100.00
2022-11-04T02:36:30.253Z,100.00
2022-11-04T02:39:04.946Z,100.00
2022-11-04T02:41:48.106Z,100.00
2022-11-04T02:44:40.253Z,100.00
2022-11-04T02:47:19.770Z,100.00
2022-11-04T02:49:53.710Z,100.00
2022-11-04T02:52:47.220Z,100.00
2022-11-04T02:55:20.224Z,100.00
2022-11-04T02:57:49.827Z,100.00
2022-11-04T03:00:20.637Z,100.00
2022-11-04T03:03:04.028Z,100.00
2022-11-04T03:05:36.931Z,100.00
2022-11-04T03:08:14.514Z,100.00
2022-11-04T03:10:45.644Z,100.00
2022-11-04T03:13:26.937Z,100.00
2022-11-04T03:16:03.100Z,100.00
2022-11-04T03:19:01.070Z,100.00
2022-11-04T03:21:34.562Z,100.00
2022-11-04T03:24:04.660Z,100.00
2022-11-04T03:26:59.424Z,100.00
2022-11-04T03:29:36.354Z,100.00
2022-11-04T03:32:42.390Z,100.00
2022-11-04T03:35:11.565Z,100.00
2022-11-04T03:37:41.249Z,100.00
2022-11-04T03:40:16.076Z,100.00
2022-11-04T03:42:49.785Z,100.00
2022-11-04T03:45:19.595Z,100.00
2022-11-04T03:47:48.844Z,100.00
2022-11-04T03:50:30.870Z,100.00
2022-11-04T03:52:59.566Z,100.00
2022-11-04T03:55:45.637Z,100.00
2022-11-04T03:58:47.373Z,100.00
2022-11-04T04:01:42.905Z,100.00
2022-11-04T04:04:35.363Z,100.00
2022-11-04T04:07:15.430Z,100.00
2022-11-04T04:10:37.296Z,100.00
2022-11-04T04:13:48.825Z,100.00
2022-11-04T04:16:28.512Z,100.00
2022-11-04T04:19:23.947Z,100.00
2022-11-04T04:21:58.221Z,100.00
2022-11-04T04:24:50.495Z,100.00
2022-11-04T04:27:32.974Z,100.00
2022-11-04T04:30:13.923Z,100.00
2022-11-04T04:32:46.769Z,100.00
2022-11-04T04:35:34.649Z,100.00
2022-11-04T04:38:24.326Z,100.00
2022-11-04T04:41:36.942Z,100.00
2022-11-04T04:44:38.963Z,100.00
2022-11-04T04:47:08.887Z,100.00
2022-11-04T04:49:37.787Z,100.00
2022-11-04T04:52:08.186Z,100.00
2022-11-04T04:54:36.944Z,100.00
2022-11-04T04:57:05.974Z,100.00
2022-11-04T04:59:34.783Z,99.93
2022-11-04T05:02:03.729Z,99.85
2022-11-04T05:04:40.334Z,99.86
2022-11-04T05:07:17.200Z,99.93
2022-11-04T05:09:51.646Z,99.90
2022-11-04T05:12:26.940Z,99.90
2022-11-04T05:15:03.869Z,100.00
2022-11-04T05:17:39.499Z,100.00
2022-11-04T05:20:15.856Z,100.00
2022-11-04T05:22:51.878Z,100.00
2022-11-04T05:25:26.987Z,100.00
2022-11-04T05:28:05.207Z,100.00
2022-11-04T05:30:40.780Z,100.00
2022-11-04T05:33:15.953Z,100.00
2022-11-04T05:35:50.873Z,100.00
2022-11-04T05:38:26.687Z,99.81
2022-11-04T05:41:02.269Z,99.91
2022-11-04T05:43:37.591Z,99.88
2022-11-04T05:46:12.553Z,99.96
2022-11-04T05:48:48.684Z,100.00
2022-11-04T05:51:22.407Z,100.00
2022-11-04T05:53:58.664Z,100.00
2022-11-04T05:56:32.920Z,99.88
2022-11-04T05:59:28.847Z,99.66
2022-11-04T06:02:04.383Z,99.42
2022-11-04T06:04:43.102Z,99.35
2022-11-04T06:07:19.158Z,99.44
2022-11-04T06:10:14.507Z,99.09
2022-11-04T06:12:49.944Z,99.15
2022-11-04T06:15:26.828Z,99.08
2022-11-04T06:18:02.695Z,99.01
2022-11-04T06:20:32.567Z,98.85
2022-11-04T06:23:07.478Z,98.74
2022-11-04T06:25:44.156Z,98.71
2022-11-04T06:28:22.800Z,98.72
2022-11-04T06:30:59.671Z,98.09
2022-11-04T06:33:36.965Z,98.08
2022-11-04T06:36:13.175Z,98.01
2022-11-04T06:38:49.297Z,97.99
2022-11-04T06:41:26.016Z,98.04
2022-11-04T06:44:02.519Z,98.01
2022-11-04T06:46:45.670Z,98.02
2022-11-04T06:49:22.027Z,97.87
2022-11-04T06:51:58.332Z,97.30
2022-11-04T06:54:33.549Z,97.36
2022-11-04T06:57:09.631Z,97.54
2022-11-04T06:59:44.907Z,97.63
2022-11-04T07:02:23.738Z,97.70
2022-11-04T07:05:01.209Z,97.78
2022-11-04T07:07:36.649Z,97.71
2022-11-04T07:10:14.820Z,97.75
2022-11-04T07:12:55.264Z,97.64
2022-11-04T07:15:35.177Z,97.42
2022-11-04T07:18:11.905Z,97.34
2022-11-04T07:20:46.059Z,97.21
2022-11-04T07:23:20.966Z,97.08
2022-11-04T07:26:00.118Z,97.01
2022-11-04T07:28:46.050Z,96.87
2022-11-04T07:31:17.812Z,96.81
2022-11-04T07:33:48.696Z,96.72
2022-11-04T07:36:18.222Z,96.55
2022-11-04T07:38:47.293Z,96.61
2022-11-04T07:41:16.400Z,96.29
2022-11-04T07:43:51.418Z,95.96
2022-11-04T07:46:20.404Z,96.04
2022-11-04T07:48:50.573Z,96.07
2022-11-04T07:51:20.545Z,95.99
2022-11-04T07:53:51.216Z,95.96
2022-11-04T07:56:20.942Z,95.91
2022-11-04T07:58:50.736Z,95.85
2022-11-04T08:01:24.821Z,95.73
2022-11-04T08:03:55.421Z,95.64
2022-11-04T08:06:23.940Z,95.60
2022-11-04T08:08:53.684Z,95.47
2022-11-04T08:11:25.702Z,95.32
2022-11-04T08:13:55.681Z,95.26
2022-11-04T08:16:31.403Z,94.74
2022-11-04T08:18:58.946Z,94.40
2022-11-04T08:21:28.879Z,94.05
2022-11-04T08:23:59.512Z,93.81
2022-11-04T08:26:29.450Z,93.65
2022-11-04T08:28:59.154Z,93.57
2022-11-04T08:31:30.723Z,93.45
2022-11-04T08:34:01.040Z,93.03
2022-11-04T08:36:34.274Z,93.00
2022-11-04T08:39:10.710Z,92.88
2022-11-04T08:41:37.442Z,92.83
2022-11-04T08:44:09.768Z,92.61
2022-11-04T08:46:39.727Z,92.40
2022-11-04T08:49:12.836Z,92.41
2022-11-04T08:51:44.165Z,92.10
2022-11-04T08:54:13.195Z,91.95
2022-11-04T08:56:46.476Z,91.71
2022-11-04T08:59:19.265Z,91.51
2022-11-04T09:01:49.177Z,91.42
2022-11-04T09:04:19.299Z,91.43
2022-11-04T09:06:50.421Z,91.46
2022-11-04T09:09:19.020Z,91.42
2022-11-04T09:11:49.236Z,91.10
2022-11-04T09:14:20.835Z,91.18
2022-11-04T09:16:49.342Z,90.92
2022-11-04T09:19:20.883Z,90.92
2022-11-04T09:21:50.365Z,91.00
2022-11-04T09:24:20.329Z,90.98
2022-11-04T09:26:51.363Z,90.97
2022-11-04T09:29:22.204Z,90.73
2022-11-04T09:31:57.066Z,90.80
2022-11-04T09:34:32.485Z,90.92
2022-11-04T09:37:07.259Z,91.02
2022-11-04T09:39:38.564Z,90.84
2022-11-04T09:42:21.805Z,90.75
2022-11-04T09:45:20.593Z,90.80
2022-11-04T09:47:33.332Z,90.70
2022-11-04T09:50:02.447Z,90.71
2022-11-04T09:52:37.080Z,90.86
2022-11-04T09:55:41.876Z,90.81
2022-11-04T09:58:13.631Z,90.64
2022-11-04T10:00:46.687Z,90.75
2022-11-04T10:03:31.631Z,90.73
2022-11-04T10:06:37.448Z,90.38
2022-11-04T10:09:23.237Z,90.34
2022-11-04T10:12:05.266Z,90.45
2022-11-04T10:14:51.121Z,90.48
2022-11-04T10:18:02.825Z,90.84
2022-11-04T10:20:43.473Z,90.71
2022-11-04T10:23:45.539Z,90.24
2022-11-04T10:26:32.224Z,90.14
2022-11-04T10:29:06.125Z,90.23
2022-11-04T10:31:36.788Z,90.51
2022-11-04T10:34:15.024Z,90.63
2022-11-04T10:36:43.964Z,90.74
2022-11-04T10:39:18.010Z,90.80
2022-11-04T10:41:47.329Z,91.01
2022-11-04T10:44:28.974Z,91.01
2022-11-04T10:47:11.038Z,91.04
2022-11-04T10:50:26.421Z,91.12
2022-11-04T10:52:27.669Z,91.14
2022-11-04T10:54:58.590Z,91.25
2022-11-04T10:57:27.897Z,91.39
2022-11-04T10:59:59.908Z,91.31
2022-11-04T11:02:49.175Z,91.26
2022-11-04T11:05:23.386Z,91.13
2022-11-04T11:07:55.784Z,90.96
2022-11-04T11:10:32.698Z,90.84
2022-11-04T11:13:07.793Z,90.51
2022-11-04T11:15:39.083Z,90.48
2022-11-04T11:18:17.501Z,90.41
2022-11-04T11:20:54.514Z,90.21
2022-11-04T11:23:39.154Z,89.98
2022-11-04T11:26:17.056Z,89.76
2022-11-04T11:28:59.652Z,89.91
2022-11-04T11:31:48.776Z,89.98
2022-11-04T11:34:27.034Z,90.01
2022-11-04T11:36:56.307Z,89.90
2022-11-04T11:39:38.503Z,89.71
2022-11-04T11:42:15.425Z,89.59
2022-11-04T11:44:51.608Z,89.26
2022-11-04T11:47:31.864Z,89.22
2022-11-04T11:50:18.965Z,88.92
2022-11-04T11:52:49.353Z,88.88
2022-11-04T11:55:33.292Z,88.55
2022-11-04T12:01:24.091Z,87.89
2022-11-04T12:09:43.691Z,86.78
2022-11-04T12:12:27.306Z,86.62
2022-11-04T12:15:27.411Z,86.50
2022-11-04T12:18:50.298Z,86.41
2022-11-04T12:21:29.935Z,85.89
2022-11-04T12:24:16.839Z,85.87
2022-11-04T12:26:54.050Z,85.82
2022-11-04T12:29:45.779Z,85.10
2022-11-04T12:32:29.192Z,85.00
2022-11-04T12:35:11.101Z,85.19
2022-11-04T12:37:54.479Z,85.38
2022-11-04T12:41:27.636Z,85.71
2022-11-04T12:43:35.676Z,85.86
2022-11-04T12:46:41.622Z,85.87
2022-11-04T12:49:28.722Z,85.79
2022-11-04T12:52:18.420Z,85.99
2022-11-04T12:54:58.734Z,86.57
2022-11-04T12:57:41.375Z,86.50
2022-11-04T13:00:15.183Z,86.52
2022-11-04T13:03:00.309Z,86.48
2022-11-04T13:06:14.610Z,86.39
2022-11-04T13:09:13.093Z,86.23
2022-11-04T13:12:02.743Z,86.16
2022-11-04T13:15:29.082Z,86.02
2022-11-04T13:18:19.259Z,85.97
2022-11-04T13:21:09.398Z,85.81
2022-11-04T13:23:53.378Z,85.86
2022-11-04T13:26:35.879Z,85.61
2022-11-04T13:29:25.928Z,85.59
2022-11-04T13:32:22.493Z,85.61
2022-11-04T13:35:32.450Z,85.38
2022-11-04T13:38:21.048Z,85.49
2022-11-04T13:41:48.351Z,85.39
2022-11-04T13:44:49.178Z,85.25
2022-11-04T13:47:31.848Z,84.71
2022-11-04T13:50:05.345Z,84.89
2022-11-04T13:52:37.531Z,85.03
2022-11-04T13:55:10.638Z,85.06
2022-11-04T13:58:09.249Z,85.02
2022-11-04T14:04:18.891Z,84.95
2022-11-04T14:07:06.931Z,85.00
2022-11-04T14:09:55.644Z,84.87
2022-11-04T14:12:55.849Z,84.62
2022-11-04T14:16:20.444Z,84.58
2022-11-04T14:19:04.442Z,84.41
2022-11-04T14:22:07.447Z,84.41
2022-11-04T14:24:40.213Z,84.22
2022-11-04T14:27:47.781Z,84.15
2022-11-04T14:30:59.428Z,84.18
2022-11-04T14:34:02.059Z,84.18
2022-11-04T14:36:53.151Z,84.20
2022-11-04T14:39:30.150Z,84.15
2022-11-04T14:42:06.560Z,84.17
2022-11-04T14:44:58.456Z,84.15
2022-11-04T14:47:43.843Z,84.39
2022-11-04T14:50:24.831Z,84.64
2022-11-04T14:53:07.258Z,84.66
2022-11-04T14:55:52.456Z,84.60
2022-11-04T15:01:41.870Z,84.34
2022-11-04T15:04:29.688Z,84.33
2022-11-04T15:07:11.341Z,84.38
2022-11-04T15:10:00.314Z,84.28
2022-11-04T15:13:15.115Z,84.31
2022-11-04T15:19:52.408Z,84.12
2022-11-04T15:22:42.136Z,83.96
2022-11-04T15:32:20.378Z,84.08
2022-11-04T15:35:28.388Z,84.05
2022-11-04T15:38:06.329Z,84.15
2022-11-04T15:40:59.475Z,84.02
2022-11-04T15:43:30.977Z,83.93
2022-11-04T15:46:01.691Z,84.00
2022-11-04T15:48:39.797Z,83.84
2022-11-04T15:51:19.597Z,83.84
2022-11-04T15:53:58.435Z,83.74
2022-11-04T15:56:37.480Z,83.94
2022-11-04T15:59:20.810Z,83.95
2022-11-04T16:01:58.883Z,84.17
2022-11-04T16:04:28.674Z,84.23
2022-11-04T16:07:18.423Z,84.11
2022-11-04T16:09:56.344Z,84.07
2022-11-04T16:12:37.637Z,83.78
2022-11-04T16:15:09.544Z,83.88
2022-11-04T16:17:43.858Z,83.83
2022-11-04T16:20:17.588Z,83.90
2022-11-04T16:22:47.616Z,83.94
2022-11-04T16:25:22.948Z,83.97
2022-11-04T16:27:52.388Z,84.01
2022-11-04T16:30:25.451Z,84.38
2022-11-04T16:32:55.832Z,84.26
2022-11-04T16:35:27.568Z,84.23
2022-11-04T16:37:59.260Z,84.21
2022-11-04T16:40:28.218Z,84.25
2022-11-04T16:42:57.688Z,84.27
2022-11-04T16:45:35.110Z,84.36
2022-11-04T16:48:04.754Z,84.49
2022-11-04T16:50:33.971Z,84.70
2022-11-04T16:53:03.513Z,84.78
2022-11-04T16:55:32.587Z,85.15
2022-11-04T16:58:02.794Z,85.40
2022-11-04T17:00:33.049Z,85.29
2022-11-04T17:03:05.017Z,84.81
2022-11-04T17:05:33.717Z,84.04
2022-11-04T17:08:06.156Z,83.82
2022-11-04T17:10:36.797Z,83.62
2022-11-04T17:13:09.455Z,83.58
2022-11-04T17:15:39.549Z,83.58
2022-11-04T17:18:16.441Z,83.32
2022-11-04T17:20:49.104Z,83.30
2022-11-04T17:23:18.720Z,83.37
2022-11-04T17:25:49.491Z,83.31
2022-11-04T17:28:18.561Z,83.29
2022-11-04T17:30:47.985Z,83.07
2022-11-04T17:33:17.874Z,82.95
2022-11-04T17:35:49.800Z,83.04
2022-11-04T17:38:19.936Z,83.23
2022-11-04T17:41:07.887Z,83.52
2022-11-04T17:43:55.530Z,83.79
2022-11-04T17:46:33.833Z,84.14
2022-11-04T17:49:05.746Z,84.54
2022-11-04T17:51:35.062Z,84.82
2022-11-04T17:54:05.241Z,85.14
2022-11-04T17:56:35.293Z,85.34
2022-11-04T17:59:04.354Z,85.49
2022-11-04T18:01:36.354Z,85.68
2022-11-04T18:04:05.875Z,85.82
2022-11-04T18:06:35.801Z,85.89
2022-11-04T18:09:05.109Z,86.01
2022-11-04T18:11:54.991Z,86.18
2022-11-04T18:14:24.634Z,86.30
2022-11-04T18:16:54.525Z,86.47
2022-11-04T18:19:25.546Z,86.55
2022-11-04T18:21:57.042Z,86.61
2022-11-04T18:24:26.839Z,86.60
2022-11-04T18:26:59.062Z,86.45
2022-11-04T18:29:27.925Z,86.29
2022-11-04T18:31:56.790Z,86.32
2022-11-04T18:34:26.332Z,86.34
2022-11-04T18:36:57.108Z,86.37
2022-11-04T18:39:26.838Z,86.29
2022-11-04T18:41:56.490Z,86.18
2022-11-04T18:44:25.108Z,86.14
2022-11-04T18:46:54.650Z,86.12
2022-11-04T18:49:24.762Z,85.94
2022-11-04T18:51:53.954Z,85.71
2022-11-04T18:54:22.900Z,85.46
2022-11-04T18:56:52.430Z,85.30
2022-11-04T18:59:21.454Z,85.14
2022-11-04T19:01:52.075Z,85.16
2022-11-04T19:04:21.148Z,85.20
2022-11-04T19:06:49.866Z,85.15
2022-11-04T19:11:51.522Z,84.90
2022-11-04T19:14:20.230Z,84.82
2022-11-04T19:16:50.185Z,84.89
2022-11-04T19:19:20.443Z,84.72
2022-11-04T19:21:50.299Z,84.68
2022-11-04T19:24:19.384Z,84.71
2022-11-04T19:26:50.011Z,84.88
2022-11-04T19:29:19.165Z,85.00
2022-11-04T19:31:49.489Z,84.80
2022-11-04T19:34:18.672Z,84.68
2022-11-04T19:36:47.891Z,84.55
2022-11-04T19:39:17.299Z,84.49
2022-11-04T19:42:05.973Z,84.36
2022-11-04T19:44:35.706Z,84.44
2022-11-04T19:47:05.750Z,84.42
2022-11-04T19:49:34.385Z,84.31
2022-11-04T19:52:04.243Z,84.26
2022-11-04T19:54:33.479Z,84.33
2022-11-04T19:57:03.336Z,84.35
2022-11-04T19:59:32.863Z,84.32
2022-11-04T20:02:03.013Z,84.37
2022-11-04T20:04:32.250Z,84.26
2022-11-04T20:07:01.855Z,84.20
2022-11-04T20:09:30.818Z,84.18
2022-11-04T20:12:19.628Z,84.13
2022-11-04T20:14:48.981Z,83.86
2022-11-04T20:17:18.504Z,83.87
2022-11-04T20:19:49.067Z,83.90
2022-11-04T20:22:18.871Z,83.87
2022-11-04T20:24:48.875Z,83.83
2022-11-04T20:27:18.821Z,83.82
2022-11-04T20:29:50.469Z,83.87
2022-11-04T20:32:23.477Z,83.76
2022-11-04T20:34:53.592Z,83.78
2022-11-04T20:37:25.281Z,83.84
2022-11-04T20:39:56.574Z,83.93
2022-11-04T20:42:25.562Z,84.00
2022-11-04T20:44:57.081Z,84.00
2022-11-04T20:47:28.211Z,84.04
2022-11-04T20:49:57.162Z,84.16
2022-11-04T20:52:26.281Z,84.25
2022-11-04T20:54:57.071Z,84.34
2022-11-04T20:57:27.670Z,84.38
2022-11-04T20:59:56.559Z,84.53
2022-11-04T21:02:25.936Z,84.62
2022-11-04T21:04:56.260Z,84.73
2022-11-04T21:07:26.866Z,84.77
2022-11-04T21:09:57.394Z,84.80
2022-11-04T21:12:27.957Z,84.72
2022-11-04T21:14:58.597Z,84.70
2022-11-04T21:17:28.453Z,84.50
2022-11-04T21:19:59.608Z,84.42
2022-11-04T21:22:28.462Z,84.57
2022-11-04T21:24:57.890Z,84.66
2022-11-04T21:27:27.712Z,84.59
2022-11-04T21:29:58.184Z,84.55
2022-11-04T21:32:27.140Z,84.62
2022-11-04T21:34:56.322Z,84.80
2022-11-04T21:37:26.435Z,85.17
2022-11-04T21:39:55.565Z,85.44
2022-11-04T21:42:25.560Z,85.80
2022-11-04T21:44:56.463Z,86.04
2022-11-04T21:47:25.304Z,86.16
2022-11-04T21:49:55.222Z,86.32
2022-11-04T21:52:24.201Z,86.41
2022-11-04T21:54:53.464Z,86.65
2022-11-04T21:57:25.810Z,86.95
2022-11-04T21:59:54.552Z,86.97
2022-11-04T22:02:23.854Z,86.96
2022-11-04T22:04:53.101Z,87.07
2022-11-04T22:07:24.179Z,87.26
2022-11-04T22:09:54.990Z,87.24
2022-11-04T22:12:24.695Z,87.38
2022-11-04T22:14:54.262Z,87.52
2022-11-04T22:17:23.059Z,87.80
2022-11-04T22:19:53.072Z,88.02
2022-11-04T22:22:21.911Z,88.25
2022-11-04T22:24:53.304Z,88.43
2022-11-04T22:27:22.231Z,88.60
2022-11-04T22:29:51.208Z,88.50
2022-11-04T22:32:21.136Z,88.48
2022-11-04T22:34:49.731Z,88.67
2022-11-04T22:37:20.072Z,88.75
2022-11-04T22:39:49.120Z,88.88
2022-11-04T22:42:18.242Z,89.09
2022-11-04T22:44:49.158Z,89.23
2022-11-04T22:47:18.235Z,89.35
2022-11-04T22:49:48.146Z,89.51
2022-11-04T22:52:17.425Z,89.62
2022-11-04T22:54:47.179Z,89.68
2022-11-04T22:57:16.126Z,89.71
2022-11-04T22:59:45.496Z,89.85
2022-11-04T23:02:15.498Z,90.00
2022-11-04T23:04:45.152Z,90.03
2022-11-04T23:07:13.897Z,89.95
2022-11-04T23:10:01.194Z,90.00
2022-11-04T23:12:50.076Z,90.16
2022-11-04T23:15:38.210Z,90.15
2022-11-04T23:18:29.622Z,90.15
2022-11-04T23:21:17.394Z,90.25
2022-11-04T23:24:04.805Z,90.39
2022-11-04T23:26:34.604Z,90.53
2022-11-04T23:29:22.602Z,90.69
2022-11-04T23:31:53.904Z,90.77
2022-11-04T23:34:41.655Z,90.87
2022-11-04T23:37:14.436Z,90.96
2022-11-04T23:39:49.166Z,91.04
2022-11-04T23:42:20.598Z,91.17
2022-11-04T23:45:11.557Z,91.16
2022-11-04T23:48:02.970Z,91.31
2022-11-04T23:50:53.643Z,91.34
2022-11-04T23:53:41.407Z,91.39
2022-11-04T23:56:29.141Z,91.35
2022-11-04T23:59:17.989Z,91.37
